Time;durP1;ratioP1;P1;durP2;ratioP2;P2;SDS_P1;SDS_P2;PMS_P1;PMS_P2;Temp;Humidity;BMP_temperature;BMP_pressure;BME280_temperature;BME280_humidity;BME280_pressure;Samples;Min_cycle;Max_cycle;Signal;HPM_P1;HPM_P2
2022/11/06 00:01:14;;;;;;;196.07;108.97;;;;;;;;;;5011763;28;20735;-50
2022/11/06 00:03:40;;;;;;;283.00;145.73;;;;;;;;;;5003672;28;20184;-50
2022/11/06 00:08:55;;;;;;;245.23;127.47;;;;;;;;;;5013567;28;20223;-50
2022/11/06 00:11:21;;;;;;;226.30;124.10;;;;;;;;;;5005808;28;20617;-50
2022/11/06 00:13:48;;;;;;;241.53;131.27;;;;;;;;;;5007504;28;20235;-50
2022/11/06 00:16:14;;;;;;;220.07;121.93;;;;;;;;;;5010588;28;20596;-49
2022/11/06 00:18:41;;;;;;;244.07;130.03;;;;;;;;;;5012313;28;20204;-49
2022/11/06 00:21:08;;;;;;;226.50;121.57;;;;;;;;;;5004685;28;20184;-50
2022/11/06 00:23:34;;;;;;;211.67;114.87;;;;;;;;;;5021429;28;20220;-49
2022/11/06 00:26:00;;;;;;;245.50;129.30;;;;;;;;;;5003928;28;20323;-50
2022/11/06 00:28:26;;;;;;;220.60;117.17;;;;;;;;;;5005636;28;20277;-50
2022/11/06 00:31:00;;;;;;;240.57;126.37;;;;;;;;;;5006293;28;20220;-49
2022/11/06 00:33:25;;;;;;;236.47;129.97;;;;;;;;;;5018162;28;20235;-50
2022/11/06 00:35:51;;;;;;;260.77;135.40;;;;;;;;;;5003429;28;20216;-50
2022/11/06 00:38:17;;;;;;;179.70;105.53;;;;;;;;;;5004172;28;20695;-50
2022/11/06 00:40:43;;;;;;;192.17;109.87;;;;;;;;;;5008517;28;20319;-50
2022/11/06 00:43:09;;;;;;;183.07;105.20;;;;;;;;;;4999820;28;20348;-50
2022/11/06 00:45:35;;;;;;;257.90;132.07;;;;;;;;;;5004728;28;20208;-51
2022/11/06 00:48:01;;;;;;;274.23;142.67;;;;;;;;;;4996112;28;20243;-50
2022/11/06 00:50:27;;;;;;;253.17;132.20;;;;;;;;;;4992435;28;20216;-49
2022/11/06 00:52:54;;;;;;;260.47;134.43;;;;;;;;;;4996121;28;20886;-49
2022/11/06 00:55:20;;;;;;;209.93;114.47;;;;;;;;;;5001341;28;20224;-50
2022/11/06 00:57:46;;;;;;;238.17;125.60;;;;;;;;;;4991883;28;20286;-50
2022/11/06 01:00:12;;;;;;;280.93;145.27;;;;;;;;;;4996788;28;20192;-49
2022/11/06 01:02:38;;;;;;;198.37;111.50;;;;;;;;;;5014954;28;20299;-49
2022/11/06 01:05:04;;;;;;;182.73;108.90;;;;;;;;;;5018174;28;20308;-49
2022/11/06 01:07:30;;;;;;;227.97;125.20;;;;;;;;;;5001537;28;20292;-50
2022/11/06 01:09:56;;;;;;;179.13;105.93;;;;;;;;;;5011485;28;20311;-49
2022/11/06 01:12:22;;;;;;;213.30;117.20;;;;;;;;;;5002450;28;20272;-49
2022/11/06 01:14:48;;;;;;;223.83;117.97;;;;;;;;;;5007163;28;20216;-49
2022/11/06 01:17:14;;;;;;;159.13;98.03;;;;;;;;;;5012181;28;20434;-49
2022/11/06 01:19:40;;;;;;;196.73;109.23;;;;;;;;;;5002540;28;20216;-50
2022/11/06 01:22:06;;;;;;;270.93;140.13;;;;;;;;;;5008421;28;20235;-50
2022/11/06 01:24:33;;;;;;;243.37;130.37;;;;;;;;;;5002798;28;20208;-49
2022/11/06 01:26:59;;;;;;;268.90;140.67;;;;;;;;;;4997625;28;20683;-49
2022/11/06 01:29:25;;;;;;;135.90;89.40;;;;;;;;;;5011457;28;20297;-49
2022/11/06 01:31:51;;;;;;;171.97;102.03;;;;;;;;;;5019938;28;20695;-49
2022/11/06 01:34:18;;;;;;;155.23;95.30;;;;;;;;;;5013928;28;20292;-50
2022/11/06 01:36:45;;;;;;;258.00;131.43;;;;;;;;;;5002048;28;20212;-49
2022/11/06 01:39:12;;;;;;;190.67;107.63;;;;;;;;;;5003307;28;20725;-50
2022/11/06 01:41:48;;;;;;;163.80;98.10;;;;;;;;;;5016085;28;20220;-49
2022/11/06 01:44:14;;;;;;;182.43;102.90;;;;;;;;;;5012782;28;20379;-49
2022/11/06 01:46:40;;;;;;;167.17;96.27;;;;;;;;;;5011526;28;20238;-50
2022/11/06 01:49:08;;;;;;;126.37;85.43;;;;;;;;;;5011133;28;20208;-49
2022/11/06 01:51:54;;;;;;;250.77;134.27;;;;;;;;;;5016199;28;20199;-50
2022/11/06 01:54:21;;;;;;;177.63;103.10;;;;;;;;;;4998831;28;20182;-50
2022/11/06 01:56:49;;;;;;;207.10;111.57;;;;;;;;;;4999397;28;20216;-50
2022/11/06 01:59:16;;;;;;;169.33;96.83;;;;;;;;;;5007332;28;20232;-49
2022/11/06 02:01:43;;;;;;;294.53;144.03;;;;;;;;;;5003597;28;20250;-50
2022/11/06 02:04:11;;;;;;;169.33;100.47;;;;;;;;;;5001456;28;20212;-51
2022/11/06 02:06:38;;;;;;;152.20;93.50;;;;;;;;;;5014460;28;20272;-50
2022/11/06 02:09:10;;;;;;;243.27;131.17;;;;;;;;;;5000593;28;20667;-49
2022/11/06 02:11:36;;;;;;;177.77;101.23;;;;;;;;;;5020964;28;20231;-49
2022/11/06 02:14:08;;;;;;;232.97;124.43;;;;;;;;;;4999434;28;20216;-50
2022/11/06 02:16:34;;;;;;;190.20;105.90;;;;;;;;;;5010387;28;20251;-50
2022/11/06 02:19:03;;;;;;;229.53;123.33;;;;;;;;;;5006336;28;20655;-50
2022/11/06 02:21:43;;;;;;;247.97;125.93;;;;;;;;;;5001241;28;20230;-49
2022/11/06 02:24:27;;;;;;;225.17;119.77;;;;;;;;;;5010283;28;20223;-50
2022/11/06 02:26:58;;;;;;;220.83;120.43;;;;;;;;;;5002976;28;20231;-49
2022/11/06 02:29:31;;;;;;;238.00;126.47;;;;;;;;;;5007472;28;20227;-50
2022/11/06 02:31:58;;;;;;;155.83;94.63;;;;;;;;;;5014901;28;20216;-48
2022/11/06 02:34:24;;;;;;;144.37;89.37;;;;;;;;;;5018254;28;20641;-50
2022/11/06 02:36:59;;;;;;;219.33;114.10;;;;;;;;;;5012245;28;20364;-50
2022/11/06 02:39:26;;;;;;;153.37;91.17;;;;;;;;;;5014098;28;20220;-49
2022/11/06 02:41:53;;;;;;;134.07;87.40;;;;;;;;;;5013094;28;21687;-48
2022/11/06 02:44:20;;;;;;;149.93;91.83;;;;;;;;;;5016326;28;20215;-49
2022/11/06 02:46:50;;;;;;;184.70;103.60;;;;;;;;;;5009423;28;20224;-50
2022/11/06 02:49:19;;;;;;;137.80;85.90;;;;;;;;;;5009365;28;20290;-49
2022/11/06 02:51:48;;;;;;;270.63;136.23;;;;;;;;;;5008254;28;20223;-51
2022/11/06 02:54:15;;;;;;;203.40;111.23;;;;;;;;;;4996367;28;20653;-50
2022/11/06 02:56:42;;;;;;;228.57;120.27;;;;;;;;;;5005973;28;20315;-50
2022/11/06 02:59:10;;;;;;;226.57;117.27;;;;;;;;;;4997619;28;20231;-50
2022/11/06 03:01:56;;;;;;;154.10;93.20;;;;;;;;;;5009298;28;20224;-49
2022/11/06 03:04:36;;;;;;;206.60;112.37;;;;;;;;;;5004315;28;20220;-51
2022/11/06 03:07:08;;;;;;;292.73;141.30;;;;;;;;;;4997043;28;20231;-49
2022/11/06 03:09:34;;;;;;;394.13;179.23;;;;;;;;;;4995603;28;20185;-49
2022/11/06 03:12:04;;;;;;;349.10;159.73;;;;;;;;;;5015745;28;20212;-49
2022/11/06 03:14:43;;;;;;;368.03;165.37;;;;;;;;;;4991696;28;20928;-50
2022/11/06 03:17:18;;;;;;;354.23;157.17;;;;;;;;;;5009096;28;20223;-49
2022/11/06 03:19:47;;;;;;;389.37;176.20;;;;;;;;;;5005159;28;20243;-50
2022/11/06 03:22:15;;;;;;;372.73;167.00;;;;;;;;;;4999945;28;20219;-49
2022/11/06 03:24:45;;;;;;;359.93;158.03;;;;;;;;;;5007979;28;20188;-49
2022/11/06 03:27:14;;;;;;;344.53;150.20;;;;;;;;;;5013886;28;20204;-50
2022/11/06 03:29:40;;;;;;;318.40;142.50;;;;;;;;;;5013533;28;21006;-50
2022/11/06 03:32:10;;;;;;;332.97;153.27;;;;;;;;;;5013905;28;20592;-49
2022/11/06 03:34:47;;;;;;;346.53;156.57;;;;;;;;;;5013625;28;20892;-48
2022/11/06 03:37:17;;;;;;;392.13;172.20;;;;;;;;;;5001998;28;20219;-50
2022/11/06 03:39:47;;;;;;;404.57;184.30;;;;;;;;;;4996289;28;20706;-50
2022/11/06 03:42:14;;;;;;;393.20;181.33;;;;;;;;;;4996529;28;20184;-50
2022/11/06 03:44:43;;;;;;;398.57;178.03;;;;;;;;;;4995384;28;20553;-50
2022/11/06 03:47:16;;;;;;;377.10;168.73;;;;;;;;;;5006757;28;20679;-50
2022/11/06 03:49:46;;;;;;;342.43;155.00;;;;;;;;;;5011460;28;20216;-49
2022/11/06 03:52:32;;;;;;;417.33;191.67;;;;;;;;;;5013634;28;20219;-50
2022/11/06 03:55:05;;;;;;;374.93;173.03;;;;;;;;;;5000500;28;20216;-49
2022/11/06 03:57:49;;;;;;;383.23;175.00;;;;;;;;;;4999332;28;20272;-50
2022/11/06 04:00:19;;;;;;;363.20;168.73;;;;;;;;;;5004001;28;20396;-50
2022/11/06 04:02:47;;;;;;;341.40;157.47;;;;;;;;;;5002022;28;20311;-49
2022/11/06 04:05:17;;;;;;;392.77;181.43;;;;;;;;;;5004551;28;20232;-49
2022/11/06 04:15:53;;;;;;;285.57;128.83;;;;;;;;;;5003757;28;20269;-51
2022/11/06 04:18:19;;;;;;;236.07;113.60;;;;;;;;;;5003145;28;20652;-52
2022/11/06 04:23:38;;;;;;;250.43;115.70;;;;;;;;;;4997797;28;20283;-51
2022/11/06 04:26:36;;;;;;;230.93;109.23;;;;;;;;;;5006251;28;20692;-52
2022/11/06 04:29:12;;;;;;;284.90;128.43;;;;;;;;;;4995798;28;20219;-52
2022/11/06 04:31:58;;;;;;;254.83;121.67;;;;;;;;;;5004556;28;20276;-52
2022/11/06 04:34:27;;;;;;;242.43;112.40;;;;;;;;;;5002434;28;20219;-54
2022/11/06 04:37:13;;;;;;;225.50;108.83;;;;;;;;;;5023846;28;20295;-54
2022/11/06 04:39:45;;;;;;;296.27;131.80;;;;;;;;;;5002694;28;20652;-55
2022/11/06 04:42:15;;;;;;;250.83;115.87;;;;;;;;;;5011858;28;20547;-51
2022/11/06 04:44:47;;;;;;;193.83;96.80;;;;;;;;;;5014821;28;20224;-54
2022/11/06 04:47:16;;;;;;;267.07;119.37;;;;;;;;;;5017068;28;20220;-51
2022/11/06 04:49:42;;;;;;;275.57;124.57;;;;;;;;;;5004969;28;20277;-51
2022/11/06 04:52:11;;;;;;;250.23;115.53;;;;;;;;;;5003816;28;20220;-52
2022/11/06 04:54:37;;;;;;;305.13;135.13;;;;;;;;;;5001162;28;20192;-54
2022/11/06 04:57:03;;;;;;;270.37;123.67;;;;;;;;;;4999976;28;20488;-54
2022/11/06 04:59:32;;;;;;;245.07;116.27;;;;;;;;;;5007163;28;20224;-53
2022/11/06 05:01:58;;;;;;;230.60;109.50;;;;;;;;;;5023050;28;20220;-52
2022/11/06 05:04:24;;;;;;;312.30;133.50;;;;;;;;;;5006783;28;20220;-52
2022/11/06 05:06:50;;;;;;;304.57;134.83;;;;;;;;;;5000994;28;20240;-52
2022/11/06 05:09:16;;;;;;;250.37;112.03;;;;;;;;;;5005469;28;20263;-52
2022/11/06 05:11:42;;;;;;;234.40;109.07;;;;;;;;;;5006009;28;20208;-52
2022/11/06 05:14:08;;;;;;;251.43;117.73;;;;;;;;;;5011266;28;20474;-52
2022/11/06 05:16:34;;;;;;;235.70;108.57;;;;;;;;;;5005670;28;20216;-51
2022/11/06 05:19:00;;;;;;;339.33;151.30;;;;;;;;;;5011152;28;20720;-52
2022/11/06 05:24:10;;;;;;;224.67;109.70;;;;;;;;;;5004209;28;20758;-52
2022/11/06 05:26:36;;;;;;;232.37;108.53;;;;;;;;;;5011646;28;20510;-52
2022/11/06 05:29:02;;;;;;;335.67;144.67;;;;;;;;;;5005803;28;20709;-52
2022/11/06 05:31:28;;;;;;;323.20;141.53;;;;;;;;;;4998734;28;20735;-52
2022/11/06 05:33:54;;;;;;;300.77;131.93;;;;;;;;;;5006181;28;20223;-51
2022/11/06 05:36:20;;;;;;;239.10;110.97;;;;;;;;;;5010829;28;20208;-51
2022/11/06 05:38:46;;;;;;;266.10;120.70;;;;;;;;;;5001687;28;20228;-52
2022/11/06 05:41:12;;;;;;;246.70;110.90;;;;;;;;;;5008166;28;20216;-53
2022/11/06 05:43:38;;;;;;;268.27;120.70;;;;;;;;;;5009143;28;20236;-53
2022/11/06 05:46:04;;;;;;;269.50;117.97;;;;;;;;;;5009031;28;20655;-52
2022/11/06 05:48:30;;;;;;;280.50;123.10;;;;;;;;;;5007933;28;20216;-51
2022/11/06 05:51:00;;;;;;;290.27;127.40;;;;;;;;;;5002605;28;20227;-51
2022/11/06 05:53:26;;;;;;;277.60;125.17;;;;;;;;;;5001870;28;20226;-52
2022/11/06 05:55:52;;;;;;;235.00;111.93;;;;;;;;;;5007877;28;20216;-52
2022/11/06 05:58:18;;;;;;;319.87;137.40;;;;;;;;;;5007134;28;20255;-52
2022/11/06 06:00:44;;;;;;;233.20;105.73;;;;;;;;;;5007331;28;20228;-52
2022/11/06 06:03:11;;;;;;;308.47;135.60;;;;;;;;;;5006229;28;20679;-52
2022/11/06 06:05:36;;;;;;;323.73;152.70;;;;;;;;;;5005253;28;20310;-53
2022/11/06 06:08:03;;;;;;;302.93;133.60;;;;;;;;;;5003237;28;20893;-52
2022/11/06 06:10:29;;;;;;;318.53;137.03;;;;;;;;;;5008397;28;20540;-53
2022/11/06 06:12:55;;;;;;;331.93;146.10;;;;;;;;;;4996588;28;20230;-52
2022/11/06 06:15:21;;;;;;;256.97;118.33;;;;;;;;;;5008234;28;20548;-52
2022/11/06 06:17:47;;;;;;;242.20;112.03;;;;;;;;;;5016232;28;20227;-52
2022/11/06 06:20:13;;;;;;;278.13;123.60;;;;;;;;;;5014029;28;20279;-51
2022/11/06 06:22:39;;;;;;;253.63;113.73;;;;;;;;;;5012712;28;20577;-52
2022/11/06 06:25:05;;;;;;;285.10;126.50;;;;;;;;;;5021272;28;20217;-53
2022/11/06 06:27:31;;;;;;;267.47;120.00;;;;;;;;;;5021228;28;20208;-52
2022/11/06 06:29:57;;;;;;;333.93;142.43;;;;;;;;;;5011982;28;20177;-53
2022/11/06 06:32:23;;;;;;;263.50;114.63;;;;;;;;;;5017185;28;20244;-53
2022/11/06 06:34:49;;;;;;;334.90;142.13;;;;;;;;;;5026243;28;20204;-53
2022/11/06 06:37:15;;;;;;;321.63;134.00;;;;;;;;;;5006378;28;20277;-52
2022/11/06 06:39:41;;;;;;;367.33;153.73;;;;;;;;;;5004365;28;20667;-52
2022/11/06 06:42:07;;;;;;;397.67;168.07;;;;;;;;;;4999044;28;20190;-52
2022/11/06 06:44:33;;;;;;;365.33;155.07;;;;;;;;;;4996196;28;20478;-52
2022/11/06 06:46:58;;;;;;;410.90;172.90;;;;;;;;;;4992062;28;20208;-52
2022/11/06 06:49:24;;;;;;;208.40;105.10;;;;;;;;;;5002550;28;20208;-52
2022/11/06 06:51:50;;;;;;;307.97;141.43;;;;;;;;;;4987718;28;20758;-52
2022/11/06 06:54:16;;;;;;;224.27;107.73;;;;;;;;;;5005408;28;20279;-52
2022/11/06 06:56:42;;;;;;;267.03;121.70;;;;;;;;;;5000444;28;21309;-52
2022/11/06 06:59:08;;;;;;;225.43;111.43;;;;;;;;;;4990406;28;20281;-52
2022/11/06 07:01:34;;;;;;;188.13;96.77;;;;;;;;;;5010737;28;20227;-52
2022/11/06 07:04:00;;;;;;;259.13;121.40;;;;;;;;;;5001925;28;20212;-52
2022/11/06 07:06:26;;;;;;;285.67;130.63;;;;;;;;;;5020163;28;20277;-52
2022/11/06 07:08:55;;;;;;;267.80;126.10;;;;;;;;;;4998471;28;20184;-52
2022/11/06 07:11:21;;;;;;;254.13;119.47;;;;;;;;;;5002611;28;20217;-52
2022/11/06 07:13:47;;;;;;;269.43;128.90;;;;;;;;;;5000631;28;20226;-52
2022/11/06 07:16:14;;;;;;;282.30;129.20;;;;;;;;;;5001976;28;20274;-52
2022/11/06 07:18:40;;;;;;;277.63;126.87;;;;;;;;;;4996222;28;20224;-52
2022/11/06 07:21:07;;;;;;;196.67;97.90;;;;;;;;;;5006313;28;20192;-52
2022/11/06 07:23:34;;;;;;;226.60;110.97;;;;;;;;;;4997395;28;20307;-52
2022/11/06 07:26:00;;;;;;;235.73;114.37;;;;;;;;;;5003028;28;20216;-52
2022/11/06 07:28:26;;;;;;;310.97;147.17;;;;;;;;;;4992321;28;20224;-52
2022/11/06 07:30:52;;;;;;;259.17;121.20;;;;;;;;;;4998693;28;20224;-52
2022/11/06 07:33:17;;;;;;;281.13;126.53;;;;;;;;;;5001452;28;20191;-52
2022/11/06 07:35:43;;;;;;;313.00;138.13;;;;;;;;;;4999540;28;20978;-53
2022/11/06 07:38:09;;;;;;;158.10;89.70;;;;;;;;;;5005816;28;20593;-53
2022/11/06 07:40:36;;;;;;;252.90;122.03;;;;;;;;;;5011182;28;20215;-53
2022/11/06 07:43:02;;;;;;;331.60;146.20;;;;;;;;;;4989294;28;20220;-52
2022/11/06 07:45:28;;;;;;;286.77;133.93;;;;;;;;;;4999282;28;20192;-52
2022/11/06 07:47:55;;;;;;;215.90;106.83;;;;;;;;;;5006576;28;20188;-52
2022/11/06 07:50:21;;;;;;;283.73;131.13;;;;;;;;;;4994003;28;20244;-52
2022/11/06 07:52:47;;;;;;;351.30;154.57;;;;;;;;;;4996088;28;20315;-52
2022/11/06 07:55:13;;;;;;;327.57;147.43;;;;;;;;;;5004443;28;20729;-52
2022/11/06 07:57:39;;;;;;;270.33;126.57;;;;;;;;;;5004891;28;20212;-52
2022/11/06 08:00:06;;;;;;;311.43;141.90;;;;;;;;;;5003475;28;20546;-53
2022/11/06 08:02:31;;;;;;;226.70;111.00;;;;;;;;;;4998746;28;20351;-53
2022/11/06 08:04:57;;;;;;;319.10;125.53;;;;;;;;;;4999864;28;20212;-53
2022/11/06 08:07:23;;;;;;;255.33;111.03;;;;;;;;;;5008141;28;20215;-53
2022/11/06 08:09:49;;;;;;;295.93;118.00;;;;;;;;;;4994521;28;20783;-52
2022/11/06 08:12:15;;;;;;;261.30;113.10;;;;;;;;;;5005838;28;20958;-53
2022/11/06 08:14:41;;;;;;;284.47;118.27;;;;;;;;;;5008441;28;20216;-53
2022/11/06 08:17:07;;;;;;;205.77;99.70;;;;;;;;;;5016925;28;20240;-53
2022/11/06 08:19:33;;;;;;;274.33;116.17;;;;;;;;;;5021049;28;20231;-53
2022/11/06 08:21:59;;;;;;;284.17;119.83;;;;;;;;;;5007397;28;20839;-53
2022/11/06 08:24:25;;;;;;;165.30;90.20;;;;;;;;;;5019722;28;20184;-53
2022/11/06 08:26:51;;;;;;;200.60;101.37;;;;;;;;;;5015865;28;20392;-53
2022/11/06 08:29:17;;;;;;;216.47;103.13;;;;;;;;;;5011292;28;20699;-53
2022/11/06 08:31:43;;;;;;;321.50;130.47;;;;;;;;;;5004467;28;20212;-54
2022/11/06 08:34:09;;;;;;;270.73;120.20;;;;;;;;;;5004056;28;20235;-53
2022/11/06 08:36:49;;;;;;;326.27;129.07;;;;;;;;;;5004223;28;20265;-52
2022/11/06 08:39:15;;;;;;;260.67;114.07;;;;;;;;;;5010305;28;20216;-53
2022/11/06 08:41:41;;;;;;;222.53;105.47;;;;;;;;;;5017420;28;20291;-53
2022/11/06 08:44:07;;;;;;;286.77;118.57;;;;;;;;;;5005150;28;20299;-53
2022/11/06 08:46:33;;;;;;;257.23;121.70;;;;;;;;;;5004283;28;20294;-53
2022/11/06 08:48:59;;;;;;;353.60;138.17;;;;;;;;;;5000067;28;20226;-53
2022/11/06 08:51:25;;;;;;;319.53;133.07;;;;;;;;;;4999538;28;21198;-53
2022/11/06 08:53:51;;;;;;;240.47;113.10;;;;;;;;;;5007207;28;20183;-53
2022/11/06 08:56:17;;;;;;;305.83;128.80;;;;;;;;;;5007647;28;21353;-52
2022/11/06 08:58:43;;;;;;;249.87;113.17;;;;;;;;;;5013647;28;20221;-53
2022/11/06 09:01:09;;;;;;;273.33;114.37;;;;;;;;;;5004392;28;20254;-52
2022/11/06 09:03:35;;;;;;;338.37;139.83;;;;;;;;;;4999169;28;20196;-53
2022/11/06 09:06:01;;;;;;;243.27;111.73;;;;;;;;;;5005126;28;20222;-53
2022/11/06 09:08:27;;;;;;;287.87;120.70;;;;;;;;;;5008003;28;20694;-53
2022/11/06 09:10:53;;;;;;;415.60;158.00;;;;;;;;;;5009449;28;20216;-53
2022/11/06 09:13:19;;;;;;;235.67;113.17;;;;;;;;;;5017274;28;20220;-54
2022/11/06 09:15:45;;;;;;;251.50;121.93;;;;;;;;;;5022875;28;20219;-53
2022/11/06 09:18:11;;;;;;;244.80;120.13;;;;;;;;;;5026572;28;20263;-53
2022/11/06 09:20:37;;;;;;;206.17;105.47;;;;;;;;;;5027685;28;20212;-53
2022/11/06 09:23:04;;;;;;;214.07;109.20;;;;;;;;;;5027537;28;20219;-53
2022/11/06 09:25:30;;;;;;;217.97;106.97;;;;;;;;;;5028424;28;20220;-53
2022/11/06 09:27:57;;;;;;;257.00;119.60;;;;;;;;;;5025903;28;20312;-53
2022/11/06 09:30:23;;;;;;;230.37;112.27;;;;;;;;;;5028623;28;20211;-53
2022/11/06 09:32:51;;;;;;;212.13;110.70;;;;;;;;;;5028594;28;20680;-53
2022/11/06 09:35:17;;;;;;;235.27;116.87;;;;;;;;;;5025946;28;20212;-54
2022/11/06 09:37:43;;;;;;;272.37;132.87;;;;;;;;;;5027380;28;20600;-53
2022/11/06 09:40:17;;;;;;;213.13;113.10;;;;;;;;;;5027470;28;20500;-53
2022/11/06 09:43:02;;;;;;;228.77;114.77;;;;;;;;;;5027889;28;20236;-53
2022/11/06 09:45:30;;;;;;;215.83;112.10;;;;;;;;;;5028018;28;20246;-54
2022/11/06 09:48:13;;;;;;;197.80;106.57;;;;;;;;;;5027327;28;20188;-53
2022/11/06 09:50:47;;;;;;;192.67;104.37;;;;;;;;;;5021754;28;20220;-53
2022/11/06 09:53:28;;;;;;;222.23;112.13;;;;;;;;;;5018647;28;20235;-54
2022/11/06 09:55:54;;;;;;;237.03;122.27;;;;;;;;;;5006107;28;20612;-53
2022/11/06 09:58:27;;;;;;;276.67;134.20;;;;;;;;;;5009175;28;20215;-54
2022/11/06 10:00:53;;;;;;;209.53;110.73;;;;;;;;;;5023009;28;20230;-53
2022/11/06 10:03:29;;;;;;;285.17;135.67;;;;;;;;;;5015444;28;20222;-53
2022/11/06 10:05:55;;;;;;;248.10;118.97;;;;;;;;;;5008680;28;20236;-53
2022/11/06 10:08:26;;;;;;;291.70;132.83;;;;;;;;;;5011876;28;20213;-53
2022/11/06 10:13:31;;;;;;;274.80;140.13;;;;;;;;;;5010269;28;20228;-50
2022/11/06 10:16:02;;;;;;;275.60;140.17;;;;;;;;;;5015352;28;20220;-50
2022/11/06 10:18:30;;;;;;;253.50;134.53;;;;;;;;;;5011384;28;20215;-50
2022/11/06 10:21:03;;;;;;;261.90;136.70;;;;;;;;;;5014430;28;20548;-50
2022/11/06 10:23:32;;;;;;;253.50;130.77;;;;;;;;;;5012226;28;20313;-51
2022/11/06 10:26:04;;;;;;;292.17;149.40;;;;;;;;;;5005278;28;20310;-52
2022/11/06 10:28:47;;;;;;;352.73;159.20;;;;;;;;;;4995396;28;20308;-51
2022/11/06 10:31:21;;;;;;;320.40;148.33;;;;;;;;;;4982549;28;20628;-50
2022/11/06 10:33:50;;;;;;;357.23;158.47;;;;;;;;;;4986543;28;20216;-52
2022/11/06 10:36:19;;;;;;;296.90;153.30;;;;;;;;;;4988347;28;20205;-50
2022/11/06 10:38:47;;;;;;;318.73;149.57;;;;;;;;;;4991852;28;20274;-51
2022/11/06 10:41:19;;;;;;;259.53;132.10;;;;;;;;;;4985244;28;20221;-52
2022/11/06 10:43:44;;;;;;;372.37;164.70;;;;;;;;;;4981378;28;20239;-51
2022/11/06 10:46:16;;;;;;;314.03;156.80;;;;;;;;;;4985508;28;20237;-51
2022/11/06 10:48:51;;;;;;;366.87;164.60;;;;;;;;;;4983079;28;20192;-52
2022/11/06 10:51:26;;;;;;;300.57;138.70;;;;;;;;;;4982252;28;20220;-51
2022/11/06 10:54:01;;;;;;;402.13;181.30;;;;;;;;;;4983974;28;20736;-51
2022/11/06 10:56:39;;;;;;;377.70;181.53;;;;;;;;;;4986410;28;20718;-51
2022/11/06 10:59:05;;;;;;;371.60;165.83;;;;;;;;;;4992113;28;20265;-51
2022/11/06 11:01:31;;;;;;;377.37;170.13;;;;;;;;;;4993050;28;20221;-50
2022/11/06 11:03:57;;;;;;;401.07;173.63;;;;;;;;;;4996772;28;20230;-50
2022/11/06 11:06:22;;;;;;;385.37;186.60;;;;;;;;;;5011452;28;20231;-50
2022/11/06 11:08:49;;;;;;;401.67;186.40;;;;;;;;;;4982903;28;20227;-51
2022/11/06 11:11:18;;;;;;;485.87;200.10;;;;;;;;;;4984626;28;20217;-53
2022/11/06 11:14:10;;;;;;;413.23;179.50;;;;;;;;;;4975048;28;20212;-50
2022/11/06 11:16:38;;;;;;;391.07;184.03;;;;;;;;;;4990972;28;20306;-50
2022/11/06 11:19:14;;;;;;;459.53;210.03;;;;;;;;;;4981928;28;20750;-50
2022/11/06 11:21:51;;;;;;;497.17;215.60;;;;;;;;;;4962432;28;20958;-49
2022/11/06 11:24:17;;;;;;;407.13;177.70;;;;;;;;;;4995677;28;20192;-51
2022/11/06 11:26:44;;;;;;;444.83;207.80;;;;;;;;;;4989039;28;20630;-54
2022/11/06 11:29:19;;;;;;;427.40;198.80;;;;;;;;;;4986186;28;20224;-50
2022/11/06 11:31:47;;;;;;;358.40;162.97;;;;;;;;;;4990404;28;20365;-50
2022/11/06 11:34:18;;;;;;;441.80;184.87;;;;;;;;;;4983700;28;20227;-52
2022/11/06 11:37:10;;;;;;;420.77;185.90;;;;;;;;;;4985998;28;20220;-50
2022/11/06 11:39:38;;;;;;;391.40;175.73;;;;;;;;;;4970173;28;20240;-50
2022/11/06 11:42:15;;;;;;;465.57;197.33;;;;;;;;;;4972933;28;20291;-50
2022/11/06 11:44:41;;;;;;;478.53;206.67;;;;;;;;;;4959704;28;20220;-52
2022/11/06 11:47:20;;;;;;;354.97;164.50;;;;;;;;;;4984332;28;20534;-51
2022/11/06 11:49:46;;;;;;;463.63;199.97;;;;;;;;;;4982381;28;20223;-50
2022/11/06 11:52:13;;;;;;;399.23;177.33;;;;;;;;;;4996779;28;20220;-51
2022/11/06 11:54:39;;;;;;;413.70;183.33;;;;;;;;;;4995505;28;20310;-49
2022/11/06 11:57:06;;;;;;;578.13;250.97;;;;;;;;;;4947186;28;20205;-49
2022/11/06 11:59:36;;;;;;;449.47;202.17;;;;;;;;;;4973150;28;21249;-51
2022/11/06 12:02:10;;;;;;;383.40;179.57;;;;;;;;;;4968033;28;20204;-52
2022/11/06 12:04:39;;;;;;;416.13;198.43;;;;;;;;;;4987310;28;20215;-50
2022/11/06 12:07:07;;;;;;;406.33;199.47;;;;;;;;;;4985239;28;20224;-51
2022/11/06 12:09:39;;;;;;;412.13;197.23;;;;;;;;;;4974660;28;20469;-51
2022/11/06 12:12:06;;;;;;;404.17;201.17;;;;;;;;;;4973706;28;20214;-50
2022/11/06 12:14:33;;;;;;;386.03;184.80;;;;;;;;;;4983370;28;20215;-51
2022/11/06 12:17:03;;;;;;;457.37;219.23;;;;;;;;;;4975044;28;20229;-51
2022/11/06 12:19:31;;;;;;;419.83;201.63;;;;;;;;;;4986693;28;20530;-52
2022/11/06 12:22:00;;;;;;;389.10;182.03;;;;;;;;;;4978641;28;20239;-52
2022/11/06 12:24:48;;;;;;;372.80;173.70;;;;;;;;;;4968680;28;20641;-50
2022/11/06 12:27:17;;;;;;;407.43;193.80;;;;;;;;;;4963227;28;20211;-51
2022/11/06 12:29:48;;;;;;;414.30;204.37;;;;;;;;;;4975881;28;20229;-50
2022/11/06 12:32:19;;;;;;;432.37;216.67;;;;;;;;;;4994327;28;20212;-50
2022/11/06 12:35:04;;;;;;;391.67;194.87;;;;;;;;;;4982470;28;20216;-51
2022/11/06 12:37:39;;;;;;;390.77;195.40;;;;;;;;;;4970328;28;20220;-51
2022/11/06 12:40:21;;;;;;;378.00;185.30;;;;;;;;;;4976192;28;20358;-51
2022/11/06 12:42:59;;;;;;;416.23;208.23;;;;;;;;;;4972978;28;20220;-50
2022/11/06 12:45:34;;;;;;;435.13;213.63;;;;;;;;;;4983122;28;20655;-50
2022/11/06 12:48:20;;;;;;;407.80;202.23;;;;;;;;;;4980091;28;20714;-52
2022/11/06 12:50:54;;;;;;;388.80;201.00;;;;;;;;;;4975655;28;20224;-51
2022/11/06 12:53:32;;;;;;;333.63;178.33;;;;;;;;;;4993667;28;20224;-51
2022/11/06 12:56:02;;;;;;;405.70;209.23;;;;;;;;;;4989891;28;20228;-51
2022/11/06 12:58:28;;;;;;;487.57;259.70;;;;;;;;;;4970350;28;21840;-52
2022/11/06 13:01:12;;;;;;;439.83;234.43;;;;;;;;;;4977451;28;20225;-50
2022/11/06 13:03:44;;;;;;;405.70;227.20;;;;;;;;;;4971496;28;20177;-51
2022/11/06 13:06:10;;;;;;;425.48;242.05;;;;;;;;;;4980308;28;20302;-52
2022/11/06 13:08:55;;;;;;;479.58;273.73;;;;;;;;;;4970336;28;20226;-51
2022/11/06 13:11:24;;;;;;;430.85;248.02;;;;;;;;;;4972633;28;20221;-52
2022/11/06 13:14:08;;;;;;;483.52;281.98;;;;;;;;;;4991425;28;20323;-52
2022/11/06 13:16:44;;;;;;;514.70;292.88;;;;;;;;;;4965363;28;20952;-52
2022/11/06 13:19:16;;;;;;;467.60;273.05;;;;;;;;;;4968957;28;20293;-52
2022/11/06 13:21:42;;;;;;;509.90;300.23;;;;;;;;;;4977230;28;20197;-52
2022/11/06 13:24:14;;;;;;;415.70;248.17;;;;;;;;;;4979260;28;20177;-52
2022/11/06 13:27:03;;;;;;;437.67;256.13;;;;;;;;;;4990899;28;20247;-50
2022/11/06 13:29:30;;;;;;;394.97;233.63;;;;;;;;;;4991385;28;21026;-51
2022/11/06 13:32:01;;;;;;;540.47;279.20;;;;;;;;;;4982635;28;20328;-52
2022/11/06 13:34:29;;;;;;;538.43;271.03;;;;;;;;;;4971875;28;20306;-51
2022/11/06 13:36:55;;;;;;;471.65;251.38;;;;;;;;;;4977994;28;20683;-53
2022/11/06 13:39:36;;;;;;;500.93;258.53;;;;;;;;;;4987074;28;20213;-53
2022/11/06 13:42:02;;;;;;;473.67;254.95;;;;;;;;;;4981421;28;20251;-51
2022/11/06 13:44:29;;;;;;;494.08;254.13;;;;;;;;;;4973400;28;20299;-52
2022/11/06 13:47:02;;;;;;;531.45;258.00;;;;;;;;;;4984482;28;20751;-52
2022/11/06 13:49:46;;;;;;;457.42;225.13;;;;;;;;;;4978587;28;20227;-52
2022/11/06 13:52:29;;;;;;;457.10;228.57;;;;;;;;;;4989233;28;20212;-53
2022/11/06 13:55:14;;;;;;;449.63;244.63;;;;;;;;;;4977404;28;20252;-51
2022/11/06 13:57:59;;;;;;;492.92;276.88;;;;;;;;;;5004708;28;20196;-50
2022/11/06 14:00:35;;;;;;;443.05;248.25;;;;;;;;;;4992704;28;20746;-51
2022/11/06 14:03:03;;;;;;;417.90;237.90;;;;;;;;;;4990010;28;20185;-51
2022/11/06 14:05:44;;;;;;;465.38;260.58;;;;;;;;;;4983231;28;20543;-51
2022/11/06 14:08:25;;;;;;;407.70;230.52;;;;;;;;;;4984716;28;20679;-50
2022/11/06 14:10:53;;;;;;;446.67;261.58;;;;;;;;;;4982731;28;20243;-51
2022/11/06 14:13:23;;;;;;;393.50;233.10;;;;;;;;;;4987222;28;21145;-50
2022/11/06 14:15:58;;;;;;;477.17;273.05;;;;;;;;;;4983777;28;20334;-51
2022/11/06 14:18:24;;;;;;;407.85;230.63;;;;;;;;;;4981777;28;20452;-50
2022/11/06 14:21:09;;;;;;;407.27;221.48;;;;;;;;;;4984554;28;20446;-51
2022/11/06 14:23:42;;;;;;;439.57;229.17;;;;;;;;;;4982953;28;20691;-52
2022/11/06 14:26:09;;;;;;;554.83;292.10;;;;;;;;;;4982740;28;20324;-51